createdAt,value
2023-05-19T00:01:50.616Z,67.53
2023-05-19T00:04:19.114Z,67.29
2023-05-19T00:06:51.726Z,67.05
2023-05-19T00:09:20.369Z,67.24
2023-05-19T00:11:48.590Z,67.00
2023-05-19T00:14:16.862Z,67.44
2023-05-19T00:16:45.033Z,67.31
2023-05-19T00:19:12.856Z,67.21
2023-05-19T00:21:40.960Z,67.35
2023-05-19T00:24:08.745Z,67.46
2023-05-19T00:26:37.170Z,67.74
2023-05-19T00:29:06.156Z,67.47
2023-05-19T00:31:34.353Z,67.68
2023-05-19T00:34:02.405Z,67.79
2023-05-19T00:36:31.089Z,67.59
2023-05-19T00:38:58.885Z,67.13
2023-05-19T00:41:26.793Z,66.81
2023-05-19T00:43:55.246Z,67.01
2023-05-19T00:46:23.129Z,66.99
2023-05-19T00:48:51.292Z,66.98
2023-05-19T00:51:19.606Z,67.00
2023-05-19T00:53:51.039Z,67.33
2023-05-19T00:56:21.741Z,67.54
2023-05-19T00:58:52.184Z,67.16
2023-05-19T01:01:21.811Z,67.16
2023-05-19T01:03:51.456Z,67.57
2023-05-19T01:06:20.886Z,68.22
2023-05-19T01:08:51.740Z,68.29
2023-05-19T01:11:19.602Z,68.13
2023-05-19T01:13:47.410Z,68.51
2023-05-19T01:16:42.668Z,68.41
2023-05-19T01:19:43.725Z,68.66
2023-05-19T01:23:00.515Z,68.69
2023-05-19T01:26:11.729Z,68.89
2023-05-19T01:29:26.047Z,68.51
2023-05-19T01:32:00.128Z,68.69
2023-05-19T01:34:31.452Z,68.74
2023-05-19T01:37:01.552Z,69.05
2023-05-19T01:39:30.366Z,69.12
2023-05-19T01:42:01.713Z,68.94
2023-05-19T01:44:29.816Z,69.09
2023-05-19T01:46:57.890Z,69.20
2023-05-19T01:49:25.785Z,69.03
2023-05-19T01:51:55.235Z,68.97
2023-05-19T01:54:23.392Z,68.98
2023-05-19T01:57:24.469Z,68.95
2023-05-19T02:00:09.353Z,68.93
2023-05-19T02:03:18.905Z,68.99
2023-05-19T02:05:59.257Z,69.33
2023-05-19T02:08:33.041Z,69.90
2023-05-19T02:11:10.749Z,70.28
2023-05-19T02:13:44.241Z,70.45
2023-05-19T02:16:14.098Z,70.51
2023-05-19T02:18:45.426Z,70.51
2023-05-19T02:21:13.727Z,70.41
2023-05-19T02:23:42.044Z,70.62
2023-05-19T02:26:09.878Z,70.60
2023-05-19T02:28:37.737Z,70.74
2023-05-19T02:31:08.849Z,70.44
2023-05-19T02:33:37.466Z,70.74
2023-05-19T02:36:06.152Z,70.90
2023-05-19T02:38:33.991Z,70.73
2023-05-19T02:41:01.783Z,70.48
2023-05-19T02:43:30.627Z,70.43
2023-05-19T02:45:58.537Z,70.20
2023-05-19T02:48:27.577Z,70.19
2023-05-19T02:50:55.341Z,70.20
2023-05-19T02:53:23.212Z,70.48
2023-05-19T02:55:51.427Z,70.57
2023-05-19T02:58:20.727Z,70.71
2023-05-19T03:00:48.649Z,70.57
2023-05-19T03:03:16.644Z,70.74
2023-05-19T03:05:44.581Z,70.89
2023-05-19T03:08:12.353Z,71.14
2023-05-19T03:10:40.163Z,71.55
2023-05-19T03:13:08.019Z,71.48
2023-05-19T03:15:36.614Z,71.55
2023-05-19T03:18:06.305Z,71.54
2023-05-19T03:20:34.371Z,71.77
2023-05-19T03:23:02.503Z,71.48
2023-05-19T03:25:30.406Z,71.11
2023-05-19T03:27:58.194Z,71.14
2023-05-19T03:30:26.147Z,71.37
2023-05-19T03:33:03.520Z,71.50
2023-05-19T03:35:31.380Z,71.43
2023-05-19T03:37:59.382Z,71.79
2023-05-19T03:40:27.496Z,71.61
2023-05-19T03:43:01.154Z,71.80
2023-05-19T03:45:29.140Z,71.58
2023-05-19T03:47:57.215Z,71.42
2023-05-19T03:50:44.602Z,71.50
2023-05-19T03:53:26.516Z,71.52
2023-05-19T03:55:55.539Z,71.40
2023-05-19T03:58:24.204Z,71.55
2023-05-19T04:00:54.496Z,71.82
2023-05-19T04:03:22.455Z,72.01
2023-05-19T04:05:50.401Z,71.91
2023-05-19T04:08:18.212Z,71.98
2023-05-19T04:10:46.078Z,72.17
2023-05-19T04:13:15.521Z,72.17
2023-05-19T04:15:43.431Z,72.30
2023-05-19T04:18:11.401Z,72.45
2023-05-19T04:20:41.438Z,72.31
2023-05-19T04:23:09.539Z,72.40
2023-05-19T04:25:41.001Z,72.68
2023-05-19T04:28:09.364Z,72.76
2023-05-19T04:30:38.679Z,72.89
2023-05-19T04:33:07.647Z,72.76
2023-05-19T04:35:35.572Z,72.86
2023-05-19T04:38:03.803Z,73.03
2023-05-19T04:40:32.936Z,73.18
2023-05-19T04:43:02.162Z,73.36
2023-05-19T04:45:30.389Z,73.50
2023-05-19T04:48:00.522Z,73.62
2023-05-19T04:50:29.747Z,73.69
2023-05-19T04:52:59.289Z,73.66
2023-05-19T04:55:27.925Z,73.55
2023-05-19T04:57:55.771Z,73.63
2023-05-19T05:00:23.735Z,73.28
2023-05-19T05:03:05.233Z,72.85
2023-05-19T05:05:33.262Z,72.93
2023-05-19T05:08:01.442Z,73.21
2023-05-19T05:10:31.986Z,73.01
2023-05-19T05:13:01.117Z,73.15
2023-05-19T05:15:29.963Z,73.10
2023-05-19T05:18:00.415Z,73.06
2023-05-19T05:20:28.763Z,72.84
2023-05-19T05:22:58.018Z,72.69
2023-05-19T05:25:26.706Z,72.86
2023-05-19T05:27:58.966Z,72.67
2023-05-19T05:30:26.876Z,72.65
2023-05-19T05:32:56.005Z,72.59
2023-05-19T05:35:35.340Z,72.37
2023-05-19T05:38:04.695Z,72.07
2023-05-19T05:40:32.676Z,72.20
2023-05-19T05:43:00.599Z,71.97
2023-05-19T05:45:31.162Z,72.12
2023-05-19T05:47:59.999Z,72.22
2023-05-19T05:50:28.420Z,72.34
2023-05-19T05:53:01.126Z,72.44
2023-05-19T05:55:29.577Z,72.55
2023-05-19T05:57:58.671Z,72.50
2023-05-19T06:00:28.366Z,71.95
2023-05-19T06:02:57.201Z,71.85
2023-05-19T06:05:26.890Z,71.74
2023-05-19T06:07:55.282Z,71.50
2023-05-19T06:10:26.229Z,70.96
2023-05-19T06:12:54.604Z,71.37
2023-05-19T06:15:23.050Z,71.36
2023-05-19T06:17:57.973Z,71.07
2023-05-19T06:20:25.774Z,71.12
2023-05-19T06:22:53.768Z,70.53
2023-05-19T06:25:22.170Z,70.31
2023-05-19T06:27:50.906Z,69.62
2023-05-19T06:30:18.865Z,68.91
2023-05-19T06:32:59.987Z,69.08
2023-05-19T06:35:28.154Z,68.92
2023-05-19T06:37:56.423Z,68.67
2023-05-19T06:40:24.415Z,68.41
2023-05-19T06:42:52.271Z,67.56
2023-05-19T06:45:33.189Z,67.95
2023-05-19T06:48:02.442Z,68.67
2023-05-19T06:50:31.108Z,68.88
2023-05-19T06:52:59.391Z,68.78
2023-05-19T06:55:27.349Z,68.76
2023-05-19T06:57:55.454Z,68.78
2023-05-19T07:00:24.113Z,69.06
2023-05-19T07:02:53.271Z,69.12
2023-05-19T07:05:21.769Z,69.01
2023-05-19T07:07:53.338Z,68.88
2023-05-19T07:10:24.112Z,69.03
2023-05-19T07:12:53.043Z,69.00
2023-05-19T07:15:21.775Z,68.73
2023-05-19T07:17:49.782Z,68.63
2023-05-19T07:20:18.058Z,68.53
2023-05-19T07:22:46.149Z,68.75
2023-05-19T07:25:14.041Z,68.03
2023-05-19T07:27:41.935Z,66.61
2023-05-19T07:30:10.402Z,66.48
2023-05-19T07:32:38.335Z,66.40
2023-05-19T07:35:06.741Z,67.02
2023-05-19T07:37:34.548Z,66.53
2023-05-19T07:40:02.491Z,65.27
2023-05-19T07:42:30.564Z,64.99
2023-05-19T07:44:58.350Z,64.64
2023-05-19T07:47:26.473Z,64.46
2023-05-19T07:49:54.291Z,64.54
2023-05-19T07:52:22.146Z,64.71
2023-05-19T07:54:50.003Z,64.23
2023-05-19T07:57:18.989Z,63.01
2023-05-19T07:59:46.848Z,63.98
2023-05-19T08:02:14.670Z,63.48
2023-05-19T08:04:42.734Z,63.53
2023-05-19T08:07:10.854Z,64.13
2023-05-19T08:09:38.683Z,63.34
2023-05-19T08:12:06.496Z,62.36
2023-05-19T08:14:35.074Z,62.48
2023-05-19T08:17:02.937Z,62.86
2023-05-19T08:19:30.858Z,63.55
2023-05-19T08:22:01.195Z,63.57
2023-05-19T08:24:30.134Z,63.30
2023-05-19T08:26:58.098Z,62.60
2023-05-19T08:29:26.294Z,63.17
2023-05-19T08:31:54.234Z,62.36
2023-05-19T08:34:22.466Z,62.55
2023-05-19T08:36:50.386Z,61.77
2023-05-19T08:39:24.096Z,61.48
2023-05-19T08:41:55.809Z,59.49
2023-05-19T08:44:23.744Z,57.26
2023-05-19T08:46:56.256Z,58.56
2023-05-19T08:49:30.730Z,58.60
2023-05-19T08:52:31.627Z,58.68
2023-05-19T08:55:09.749Z,59.05
2023-05-19T08:57:38.671Z,59.38
2023-05-19T09:00:09.675Z,58.51
2023-05-19T09:02:50.268Z,58.67
2023-05-19T09:05:26.786Z,57.40
2023-05-19T09:07:55.090Z,58.44
2023-05-19T09:10:23.351Z,59.18
2023-05-19T09:12:52.152Z,59.62
2023-05-19T09:15:20.327Z,59.74
2023-05-19T09:17:48.435Z,59.29
2023-05-19T09:20:17.575Z,59.32
2023-05-19T09:22:47.464Z,58.00
2023-05-19T09:25:26.485Z,58.51
2023-05-19T09:27:55.278Z,58.88
2023-05-19T09:30:24.623Z,58.86
2023-05-19T09:32:52.697Z,58.39
2023-05-19T09:35:21.674Z,57.96
2023-05-19T09:37:49.560Z,57.56
2023-05-19T09:40:17.616Z,57.90
2023-05-19T09:42:45.495Z,57.63
2023-05-19T09:45:13.444Z,56.59
2023-05-19T09:47:42.236Z,57.05
2023-05-19T09:50:12.416Z,57.25
2023-05-19T09:52:44.530Z,56.80
2023-05-19T09:55:13.628Z,56.03
2023-05-19T09:57:41.640Z,55.61
2023-05-19T10:00:11.973Z,55.60
2023-05-19T10:02:46.344Z,55.80
2023-05-19T10:05:20.004Z,55.11
2023-05-19T10:07:52.391Z,55.04
2023-05-19T10:10:22.646Z,54.76
2023-05-19T10:12:50.816Z,54.04
2023-05-19T10:15:22.782Z,54.71
2023-05-19T10:17:52.088Z,53.55
2023-05-19T10:20:19.938Z,53.74
2023-05-19T10:22:48.717Z,54.66
2023-05-19T10:25:18.644Z,54.06
2023-05-19T10:27:55.253Z,53.08
2023-05-19T10:30:39.729Z,53.05
2023-05-19T10:33:13.947Z,52.75
2023-05-19T10:36:23.395Z,52.70
2023-05-19T10:39:05.964Z,53.00
2023-05-19T10:42:11.193Z,52.59
2023-05-19T10:45:21.833Z,53.90
2023-05-19T10:47:54.720Z,54.78
2023-05-19T10:50:22.790Z,53.83
2023-05-19T10:52:56.667Z,52.60
2023-05-19T10:55:55.907Z,52.31
2023-05-19T10:58:40.369Z,52.04
2023-05-19T11:01:12.854Z,51.28
2023-05-19T11:03:57.277Z,50.43
2023-05-19T11:06:27.169Z,50.44
2023-05-19T11:09:19.588Z,50.38
2023-05-19T11:11:54.300Z,50.86
2023-05-19T11:14:27.003Z,51.22
2023-05-19T11:16:59.848Z,49.95
2023-05-19T11:19:33.247Z,48.08
2023-05-19T11:22:13.550Z,48.38
2023-05-19T11:24:49.906Z,48.15
2023-05-19T11:27:24.391Z,47.30
2023-05-19T11:29:53.971Z,48.91
2023-05-19T11:32:25.796Z,48.41
2023-05-19T11:34:55.971Z,48.31
2023-05-19T11:37:26.469Z,47.62
2023-05-19T11:39:54.580Z,46.96
2023-05-19T11:42:23.892Z,47.19
2023-05-19T11:44:56.177Z,46.25
2023-05-19T11:47:24.069Z,46.19
2023-05-19T11:49:52.114Z,46.28
2023-05-19T11:52:22.980Z,47.48
2023-05-19T11:54:52.391Z,46.92
2023-05-19T11:57:21.018Z,46.96
2023-05-19T11:59:49.862Z,45.73
2023-05-19T12:02:19.841Z,46.18
2023-05-19T12:04:49.492Z,46.54
2023-05-19T12:07:23.075Z,46.91
2023-05-19T12:09:52.589Z,47.05
2023-05-19T12:12:22.993Z,47.04
2023-05-19T12:14:53.026Z,47.62
2023-05-19T12:17:21.649Z,47.12
2023-05-19T12:19:50.506Z,46.99
2023-05-19T12:22:19.218Z,45.50
2023-05-19T12:24:47.829Z,45.45
2023-05-19T12:27:26.523Z,46.44
2023-05-19T12:29:57.295Z,48.08
2023-05-19T12:32:31.170Z,47.94
2023-05-19T12:34:59.144Z,47.54
2023-05-19T12:37:29.993Z,47.46
2023-05-19T12:39:57.929Z,47.19
2023-05-19T12:42:35.237Z,47.18
2023-05-19T12:45:04.716Z,45.17
2023-05-19T12:47:35.311Z,46.24
2023-05-19T12:50:08.777Z,47.45
2023-05-19T12:52:51.263Z,47.85
2023-05-19T12:55:21.094Z,47.94
2023-05-19T12:57:57.311Z,48.36
2023-05-19T13:00:31.048Z,47.60
2023-05-19T13:03:08.521Z,47.36
2023-05-19T13:05:46.496Z,47.73
2023-05-19T13:08:17.269Z,46.63
2023-05-19T13:10:46.733Z,44.73
2023-05-19T13:13:15.236Z,44.78
2023-05-19T13:15:51.043Z,44.75
2023-05-19T13:18:19.042Z,44.58
2023-05-19T13:20:49.958Z,44.36
2023-05-19T13:23:18.644Z,44.96
2023-05-19T13:25:46.677Z,44.80
2023-05-19T13:28:14.492Z,45.01
2023-05-19T13:30:44.779Z,45.32
2023-05-19T13:33:12.828Z,44.52
2023-05-19T13:35:40.918Z,45.43
2023-05-19T13:38:10.582Z,45.21
2023-05-19T13:40:39.806Z,45.95
2023-05-19T13:43:08.748Z,45.51
2023-05-19T13:45:37.335Z,45.34
2023-05-19T13:48:07.325Z,45.04
2023-05-19T13:50:36.111Z,45.84
2023-05-19T13:53:04.385Z,44.23
2023-05-19T13:55:33.139Z,44.68
2023-05-19T13:58:00.947Z,45.31
2023-05-19T14:00:30.798Z,45.80
2023-05-19T14:03:00.450Z,45.74
2023-05-19T14:05:29.149Z,46.52
2023-05-19T14:07:58.091Z,46.01
2023-05-19T14:10:26.657Z,45.50
2023-05-19T14:13:25.976Z,45.89
2023-05-19T14:15:42.527Z,45.63
2023-05-19T14:18:11.284Z,46.31
2023-05-19T14:20:39.189Z,47.40
2023-05-19T14:23:06.998Z,48.55
2023-05-19T14:25:34.864Z,48.76
2023-05-19T14:28:02.822Z,49.57
2023-05-19T14:30:30.711Z,49.09
2023-05-19T14:32:58.668Z,49.09
2023-05-19T14:35:27.333Z,49.71
2023-05-19T14:37:55.349Z,49.83
2023-05-19T14:40:23.347Z,50.00
2023-05-19T14:42:51.140Z,50.58
2023-05-19T14:45:18.932Z,50.39
2023-05-19T14:47:47.710Z,50.87
2023-05-19T14:50:16.362Z,51.33
2023-05-19T14:52:44.254Z,51.63
2023-05-19T14:55:12.120Z,51.90
2023-05-19T14:57:40.051Z,51.57
2023-05-19T15:00:10.309Z,51.65
2023-05-19T15:02:38.776Z,51.69
2023-05-19T15:05:08.441Z,52.13
2023-05-19T15:07:36.417Z,52.52
2023-05-19T15:10:05.040Z,53.16
2023-05-19T15:12:32.881Z,53.46
2023-05-19T15:15:00.827Z,54.35
2023-05-19T15:17:28.693Z,54.85
2023-05-19T15:19:56.627Z,54.73
2023-05-19T15:22:24.452Z,54.89
2023-05-19T15:24:52.361Z,55.36
2023-05-19T15:27:20.860Z,55.76
2023-05-19T15:29:48.752Z,55.84
2023-05-19T15:32:17.431Z,55.97
2023-05-19T15:34:45.335Z,56.36
2023-05-19T15:37:13.253Z,56.91
2023-05-19T15:39:41.157Z,57.08
2023-05-19T15:42:09.102Z,57.26
2023-05-19T15:44:37.536Z,58.31
2023-05-19T15:47:05.622Z,58.52
2023-05-19T15:49:34.107Z,58.69
2023-05-19T15:52:03.019Z,58.99
2023-05-19T15:54:30.983Z,58.95
2023-05-19T15:56:58.785Z,59.28
2023-05-19T15:59:26.633Z,59.36
2023-05-19T16:01:54.529Z,59.31
2023-05-19T16:04:22.421Z,59.36
2023-05-19T16:06:50.534Z,59.15
2023-05-19T16:09:18.387Z,59.24
2023-05-19T16:11:46.215Z,59.53
2023-05-19T16:14:14.640Z,59.27
2023-05-19T16:16:44.508Z,59.57
2023-05-19T16:19:12.510Z,60.18
2023-05-19T16:21:40.564Z,60.61
2023-05-19T16:24:08.458Z,61.13
2023-05-19T16:26:36.344Z,61.19
2023-05-19T16:29:04.229Z,61.30
2023-05-19T16:31:32.099Z,61.50
2023-05-19T16:33:59.930Z,61.60
2023-05-19T16:36:27.832Z,61.90
2023-05-19T16:38:55.671Z,61.88
2023-05-19T16:41:23.460Z,61.72
2023-05-19T16:43:51.233Z,61.69
2023-05-19T16:46:19.195Z,61.76
2023-05-19T16:48:47.091Z,61.49
2023-05-19T16:51:15.158Z,61.50
2023-05-19T16:53:42.946Z,61.83
2023-05-19T16:56:10.799Z,62.14
2023-05-19T16:58:38.699Z,62.18
2023-05-19T17:01:06.644Z,62.24
2023-05-19T17:03:35.669Z,62.26
2023-05-19T17:06:03.903Z,62.66
2023-05-19T17:08:31.992Z,62.61
2023-05-19T17:10:59.779Z,61.45
2023-05-19T17:13:29.652Z,61.71
2023-05-19T17:15:57.716Z,62.24
2023-05-19T17:18:25.716Z,62.18
2023-05-19T17:20:53.718Z,61.78
2023-05-19T17:23:21.596Z,61.49
2023-05-19T17:25:54.254Z,61.42
2023-05-19T17:28:22.356Z,61.27
2023-05-19T17:30:50.318Z,61.44
2023-05-19T17:33:18.272Z,61.43
2023-05-19T17:35:46.224Z,61.28
2023-05-19T17:38:14.079Z,60.29
2023-05-19T17:40:42.155Z,60.46
2023-05-19T17:43:10.113Z,60.35
2023-05-19T17:45:37.982Z,60.45
2023-05-19T17:48:06.486Z,60.84
2023-05-19T17:50:34.644Z,61.42
2023-05-19T17:53:02.963Z,61.71
2023-05-19T17:55:31.450Z,61.80
2023-05-19T17:57:59.800Z,61.77
2023-05-19T18:00:28.170Z,61.41
2023-05-19T18:02:57.507Z,61.62
2023-05-19T18:05:26.633Z,61.65
2023-05-19T18:07:57.503Z,61.03
2023-05-19T18:10:27.489Z,61.00
2023-05-19T18:12:55.476Z,60.97
2023-05-19T18:15:24.051Z,61.56
2023-05-19T18:17:52.033Z,62.04
2023-05-19T18:20:20.076Z,62.81
2023-05-19T18:22:48.173Z,63.52
2023-05-19T18:25:18.480Z,64.29
2023-05-19T18:27:47.196Z,64.59
2023-05-19T18:30:15.353Z,64.66
2023-05-19T18:32:43.272Z,64.65
2023-05-19T18:35:11.398Z,64.86
2023-05-19T18:37:39.334Z,65.54
2023-05-19T18:40:08.150Z,65.81
2023-05-19T18:42:35.947Z,65.71
2023-05-19T18:45:04.641Z,65.41
2023-05-19T18:47:32.468Z,65.53
2023-05-19T18:50:00.329Z,65.67
2023-05-19T18:52:28.640Z,65.54
2023-05-19T18:54:56.807Z,65.66
2023-05-19T18:57:24.696Z,65.72
2023-05-19T18:59:52.901Z,65.71
2023-05-19T19:02:20.828Z,66.21
2023-05-19T19:04:49.443Z,66.74
2023-05-19T19:07:17.324Z,66.92
2023-05-19T19:09:45.462Z,67.37
2023-05-19T19:12:13.371Z,67.77
2023-05-19T19:14:41.772Z,68.21
2023-05-19T19:17:09.640Z,68.12
2023-05-19T19:19:37.992Z,68.15
2023-05-19T19:22:06.011Z,68.93
2023-05-19T19:24:33.934Z,69.17
2023-05-19T19:27:02.259Z,69.99
2023-05-19T19:29:30.230Z,70.13
2023-05-19T19:31:58.202Z,70.64
2023-05-19T19:34:26.617Z,71.32
2023-05-19T19:36:54.831Z,72.56
2023-05-19T19:39:22.785Z,72.29
2023-05-19T19:41:50.626Z,72.21
2023-05-19T19:44:18.570Z,73.32
2023-05-19T19:46:46.687Z,72.93
2023-05-19T19:49:14.606Z,72.94
2023-05-19T19:51:42.647Z,73.55
2023-05-19T19:54:10.620Z,73.39
2023-05-19T19:56:38.474Z,73.22
2023-05-19T19:59:06.770Z,73.24
2023-05-19T20:01:34.777Z,73.63
2023-05-19T20:04:03.119Z,73.77
2023-05-19T20:06:32.257Z,73.69
2023-05-19T20:09:00.217Z,73.87
2023-05-19T20:11:28.268Z,73.74
2023-05-19T20:13:56.177Z,73.84
2023-05-19T20:16:24.283Z,74.91
2023-05-19T20:18:52.265Z,75.40
2023-05-19T20:21:20.164Z,76.27
2023-05-19T20:23:50.480Z,76.26
2023-05-19T20:26:19.101Z,76.87
2023-05-19T20:28:47.417Z,77.49
2023-05-19T20:31:15.528Z,77.11
2023-05-19T20:33:43.450Z,76.99
2023-05-19T20:36:11.749Z,76.84
2023-05-19T20:38:39.721Z,77.00
2023-05-19T20:41:07.912Z,76.78
2023-05-19T20:43:35.765Z,76.70
2023-05-19T20:46:04.517Z,76.88
2023-05-19T20:48:32.437Z,76.92
2023-05-19T20:51:00.620Z,77.44
2023-05-19T20:53:28.570Z,77.49
2023-05-19T20:55:56.467Z,77.33
2023-05-19T20:58:26.751Z,77.09
2023-05-19T21:00:58.042Z,76.85
2023-05-19T21:03:27.279Z,76.93
2023-05-19T21:05:56.423Z,76.91
2023-05-19T21:08:25.582Z,77.17
2023-05-19T21:10:53.657Z,76.81
2023-05-19T21:13:21.945Z,76.58
2023-05-19T21:15:49.951Z,76.21
2023-05-19T21:18:18.075Z,75.96
2023-05-19T21:20:46.637Z,75.69
2023-05-19T21:23:14.594Z,75.27
2023-05-19T21:25:44.050Z,74.97
2023-05-19T21:28:13.240Z,74.78
2023-05-19T21:30:41.659Z,74.53
2023-05-19T21:33:09.691Z,74.38
2023-05-19T21:35:37.994Z,74.33
2023-05-19T21:38:15.732Z,74.37
2023-05-19T21:40:50.360Z,74.32
2023-05-19T21:43:18.300Z,74.29
2023-05-19T21:45:46.149Z,74.50
2023-05-19T21:48:14.096Z,74.84
2023-05-19T21:50:42.011Z,74.91
2023-05-19T21:53:09.985Z,75.02
2023-05-19T21:55:37.836Z,75.12
2023-05-19T21:58:06.396Z,75.07
2023-05-19T22:00:34.518Z,75.16
2023-05-19T22:03:02.786Z,75.14
2023-05-19T22:05:32.052Z,75.21
2023-05-19T22:08:00.049Z,75.35
2023-05-19T22:10:27.841Z,75.56
2023-05-19T22:12:55.658Z,75.51
2023-05-19T22:15:23.705Z,75.76
2023-05-19T22:17:51.527Z,75.80
2023-05-19T22:20:19.551Z,76.16
2023-05-19T22:22:47.345Z,76.04
2023-05-19T22:25:15.294Z,76.23
2023-05-19T22:27:43.467Z,76.09
2023-05-19T22:30:11.347Z,76.20
2023-05-19T22:32:39.227Z,76.11
2023-05-19T22:35:08.374Z,76.23
2023-05-19T22:37:36.251Z,76.29
2023-05-19T22:40:05.029Z,76.32
2023-05-19T22:42:33.149Z,76.40
2023-05-19T22:45:00.951Z,76.44
2023-05-19T22:47:29.694Z,76.44
2023-05-19T22:49:57.617Z,76.44
2023-05-19T22:52:25.461Z,76.57
2023-05-19T22:54:53.384Z,76.51
2023-05-19T22:57:21.394Z,76.91
2023-05-19T22:59:49.385Z,76.64
2023-05-19T23:02:17.230Z,76.72
2023-05-19T23:04:45.293Z,77.24
2023-05-19T23:07:13.250Z,77.50
2023-05-19T23:09:41.152Z,77.42
2023-05-19T23:12:09.054Z,77.26
2023-05-19T23:14:37.008Z,77.27
2023-05-19T23:17:05.260Z,77.24
2023-05-19T23:19:34.972Z,77.58
2023-05-19T23:22:02.786Z,77.71
2023-05-19T23:24:30.573Z,77.84
2023-05-19T23:26:58.494Z,77.81
2023-05-19T23:29:26.496Z,77.80
2023-05-19T23:31:54.363Z,77.71
2023-05-19T23:34:22.221Z,78.01
2023-05-19T23:36:50.058Z,78.21
2023-05-19T23:39:17.939Z,79.07
2023-05-19T23:41:46.133Z,79.46
2023-05-19T23:44:14.015Z,79.43
2023-05-19T23:46:41.960Z,79.40
2023-05-19T23:49:09.873Z,79.80
2023-05-19T23:51:37.741Z,79.39
2023-05-19T23:54:05.711Z,79.15
2023-05-19T23:56:33.607Z,79.64
2023-05-19T23:59:01.550Z,79.36
